• Join FlightAware (Why Join?)
  • Login
  • US Flag 
10:23AM EST


 

Airport Tracker/Info


-or-


 

Live Flight TrackerFlight Track Log ✈ SWA2166 ✈ 12-Apr-2013 ✈ KPVD - KMCO

Flight Track Log - Related Links

Times and Time Zones

All times are in EDT time to prevent confusion due to time zone crossing. See the SWA2166 flight status page for this flight to view local times or setup timezone preferences in your user account.

Time Position Orientation Groundspeed Altitude Reporting Facility
EDT Latitude Longitude Course Direction KTS MPH feet Rate Location/Type
01:26PM 41.7289 -71.4247 45° Northeast 150 173 600  Level Boston Center
01:26PM 41.7392 -71.4108 45° Northeast 131 151 1,300 2,462 Climbing Boston Center
01:27PM 41.7575 -71.3547 66° East 194 223 3,800 2,370 Climbing Boston Center
01:28PM 41.7133 -71.3167 147° Southeast 178 205 6,000 2,450 Climbing Boston Center
01:29PM 41.6508 -71.3122 177° South 222 255 8,700 3,492 Climbing Boston Center
01:30PM 41.5756 -71.3025 174° South 254 292 13,100 3,407 Climbing Boston Center
01:31PM 41.5067 -71.2925 174° South 264 304 15,400 2,390 Climbing Boston Center
01:32PM 41.4108 -71.2803 175° South 306 352 17,800 2,213 Climbing Boston Center
01:33PM 41.3317 -71.2844 182° South 325 374 19,900 2,067 Climbing Boston Center
01:34PM 41.2678 -71.3769 227° Southwest 304 350 21,900 2,269 Climbing Boston Center
01:35PM 41.2064 -71.4828 232° Southwest 332 382 24,400 2,479 Climbing Boston Center
01:36PM 41.1406 -71.5775 227° Southwest 351 404 26,900 2,033 Climbing Boston Center
01:37PM 41.0869 -71.6608 230° Southwest 356 410 28,500 1,587 Climbing Boston Center
01:38PM 41.0086 -71.7911 231° Southwest 375 432 30,100 1,576 Climbing Boston Center
01:39PM 40.9425 -71.9153 235° Southwest 398 458 31,600 1,831 Climbing Boston Center
01:40PM 40.8639 -72.0367 229° Southwest 403 464 33,700 1,934 Climbing Boston Center
01:41PM 40.7953 -72.1467 231° Southwest 403 464 35,500 1,550 Climbing Boston Center
01:42PM 40.7183 -72.2264 218° Southwest 396 456 36,800 1,200 Climbing Boston Center
01:43PM 40.6436 -72.3281 226° Southwest 391 450 37,900 600 Climbing Boston Center
01:44PM 40.5664 -72.4264 224° Southwest 391 450 38,000 50 Climbing Boston Center
01:45PM 40.4872 -72.5247 223° Southwest 391 450 38,000  Level Boston Center
01:46PM 40.4081 -72.6281 225° Southwest 396 456 38,000  Level Boston Center
01:47PM 40.3286 -72.7258 223° Southwest 396 456 38,000  Level Boston Center
01:48PM 40.2533 -72.8233 225° Southwest 396 456 38,000  Level Boston Center
01:49PM 40.1694 -72.9342 225° Southwest 396 456 38,000  Level Boston Center
01:50PM 40.0900 -73.0339 224° Southwest 396 456 38,000  Level Boston Center
01:51PM 40.0122 -73.1308 224° Southwest 396 456 38,000  Level Boston Center
01:52PM 39.9422 -73.2208 225° Southwest 396 456 38,000  Level Washington Center
01:53PM 39.8628 -73.3183 223° Southwest 396 456 38,000  Level Washington Center
01:54PM 39.7772 -73.4236 223° Southwest 389 448 38,000  Level Washington Center
01:55PM 39.7078 -73.5067 223° Southwest 389 448 38,000  Level Washington Center
01:56PM 39.6303 -73.6031 224° Southwest 389 448 38,000  Level Washington Center
01:57PM 39.5506 -73.6969 222° Southwest 389 448 38,000  Level Washington Center
01:58PM 39.4769 -73.7875 224° Southwest 383 441 38,000  Level Washington Center
01:59PM 39.4011 -73.8781 223° Southwest 378 435 38,000  Level Washington Center
02:00PM 39.3253 -73.9711 224° Southwest 378 435 38,000  Level Washington Center
02:01PM 39.2475 -74.0667 224° Southwest 378 435 38,000  Level Washington Center
02:02PM 39.1733 -74.1564 223° Southwest 378 435 38,000  Level Washington Center
02:03PM 39.0994 -74.2436 223° Southwest 378 435 38,000  Level Washington Center
02:04PM 39.0214 -74.3386 223° Southwest 378 435 38,000  Level Washington Center
02:05PM 38.9408 -74.4333 222° Southwest 383 441 38,000  Level Washington Center
02:06PM 38.8647 -74.5253 223° Southwest 383 441 38,000  Level Washington Center
02:07PM 38.7842 -74.6197 222° Southwest 383 441 38,000  Level Washington Center
02:08PM 38.7056 -74.7136 223° Southwest 388 447 38,000  Level Washington Center
02:09PM 38.6189 -74.8106 221° Southwest 388 447 38,000  Level Washington Center
02:10PM 38.5381 -74.9017 221° Southwest 388 447 38,000  Level Washington Center
02:11PM 38.4594 -75.0031 225° Southwest 388 447 38,000  Level Washington Center
02:12PM 38.3764 -75.0939 221° Southwest 393 452 38,000  Level Washington Center
02:13PM 38.2956 -75.1922 224° Southwest 393 452 38,000  Level Washington Center
02:14PM 38.2144 -75.2878 223° Southwest 398 458 38,000  Level Washington Center
02:15PM 38.1333 -75.3778 221° Southwest 398 458 38,000  Level Washington Center
02:16PM 38.0500 -75.4706 221° Southwest 398 458 38,000  Level Washington Center
02:17PM 37.9561 -75.5469 213° Southwest 398 458 38,000  Level Washington Center
02:18PM 37.8625 -75.6233 213° Southwest 403 464 38,000  Level Washington Center
02:19PM 37.7706 -75.6969 212° Southwest 403 464 38,000  Level Washington Center
02:20PM 37.6767 -75.7728 213° Southwest 403 464 38,000  Level Washington Center
02:21PM 37.5869 -75.8461 213° Southwest 398 458 38,000  Level Washington Center
02:22PM 37.4950 -75.9192 212° Southwest 393 452 38,000  Level Washington Center
02:23PM 37.4050 -75.9919 213° Southwest 393 452 38,000  Level Washington Center
02:24PM 37.3131 -76.0644 212° Southwest 393 452 38,000  Level Washington Center
02:25PM 37.2231 -76.1369 213° Southwest 393 452 38,000  Level Washington Center
02:26PM 37.1267 -76.2042 209° Southwest 399 459 38,000  Level Washington Center
02:27PM 37.0325 -76.2786 212° Southwest 404 465 38,000  Level Washington Center
02:28PM 36.9381 -76.3508 211° Southwest 404 465 38,000  Level Washington Center
02:29PM 36.8458 -76.4250 213° Southwest 404 465 38,000  Level Washington Center
02:30PM 36.7533 -76.4992 213° Southwest 404 465 38,000  Level Washington Center
02:31PM 36.6717 -76.5683 214° Southwest 404 465 38,000  Level Washington Center
02:32PM 36.5731 -76.6342 208° Southwest 404 465 38,000  Level Washington Center
02:33PM 36.4725 -76.6794 200° South 398 458 38,000  Level Washington Center
02:34PM 36.3842 -76.7531 214° Southwest 392 451 38,000  Level Washington Center
02:35PM 36.2936 -76.8239 212° Southwest 392 451 38,000  Level Washington Center
02:36PM 36.2053 -76.8944 213° Southwest 392 451 38,000  Level Washington Center
02:37PM 36.1128 -76.9675 213° Southwest 392 451 38,000  Level Washington Center
02:38PM 36.0242 -77.0431 215° Southwest 392 451 38,000  Level Washington Center
02:39PM 35.9314 -77.1131 211° Southwest 392 451 38,000  Level Washington Center
02:40PM 35.8450 -77.1858 214° Southwest 392 451 38,000  Level Washington Center
02:41PM 35.7603 -77.2711 219° Southwest 392 451 38,000  Level Washington Center
02:42PM 35.6778 -77.3539 219° Southwest 386 444 38,000  Level Washington Center
02:43PM 35.5953 -77.4336 218° Southwest 386 444 38,000  Level Washington Center
02:44PM 35.5125 -77.5186 220° Southwest 386 444 38,000  Level Washington Center
02:45PM 35.4275 -77.6058 220° Southwest 391 450 38,000  Level Washington Center
02:46PM 35.3406 -77.6875 217° Southwest 391 450 38,000  Level Washington Center
02:47PM 35.2536 -77.7719 218° Southwest 396 456 38,000  Level Washington Center
02:48PM 35.1706 -77.8558 220° Southwest 396 456 38,000  Level Washington Center
02:49PM 35.0856 -77.9425 220° Southwest 401 461 38,000  Level Washington Center
02:50PM 35.0025 -78.0236 219° Southwest 395 455 38,000  Level Washington Center
02:51PM 34.9194 -78.1047 219° Southwest 395 455 38,000  Level Washington Center
02:52PM 34.8364 -78.1858 219° Southwest 390 449 38,000  Level Washington Center
02:53PM 34.7328 -78.2531 208° Southwest 384 442 38,000  Level Washington Center
02:55PM 34.5050 -78.2744 184° South 419 482 38,000  Level Jacksonville Center
02:56PM 34.3908 -78.2881 186° South 424 488 38,000  Level Jacksonville Center
02:57PM 34.3056 -78.3556 213° Southwest 387 445 38,000  Level Jacksonville Center
02:58PM 34.2208 -78.4353 218° Southwest 379 436 38,000  Level Jacksonville Center
02:59PM 34.1422 -78.5144 220° Southwest 379 436 38,000  Level Jacksonville Center
03:00PM 34.0614 -78.5936 219° Southwest 379 436 38,000  Level Jacksonville Center
03:01PM 33.9806 -78.6703 218° Southwest 379 436 38,000  Level Jacksonville Center
03:02PM 33.9019 -78.7467 219° Southwest 379 436 38,000  Level Jacksonville Center
03:03PM 33.8208 -78.8256 219° Southwest 379 436 38,000 -50 Level Jacksonville Center
03:04PM 33.7419 -78.9017 219° Southwest 379 436 37,900 -50 Descending Jacksonville Center
03:05PM 33.6650 -78.9775 219° Southwest 373 429 37,900 50 Level Jacksonville Center
03:06PM 33.5900 -79.0506 219° Southwest 362 417 38,000 50 Climbing Jacksonville Center
03:07PM 33.5131 -79.1211 217° Southwest 357 411 38,000  Level Jacksonville Center
03:08PM 33.4439 -79.1886 219° Southwest 346 398 38,000  Level Jacksonville Center
03:09PM 33.3711 -79.2639 221° Southwest 346 398 38,000  Level Jacksonville Center
03:10PM 33.2936 -79.3292 215° Southwest 346 398 38,000  Level Jacksonville Center
03:11PM 33.1989 -79.3703 200° South 346 398 38,000  Level Jacksonville Center
03:12PM 33.1039 -79.4086 199° South 357 411 38,000  Level Jacksonville Center
03:13PM 33.0153 -79.4542 203° Southwest 357 411 38,000  Level Jacksonville Center
03:14PM 32.9333 -79.5117 210° Southwest 352 405 38,000  Level Jacksonville Center
03:15PM 32.8558 -79.5764 215° Southwest 352 405 38,000  Level Jacksonville Center
03:16PM 32.7889 -79.6481 222° Southwest 340 391 38,000  Level Jacksonville Center
03:17PM 32.7197 -79.7247 223° Southwest 335 386 38,000  Level Jacksonville Center
03:18PM 32.6486 -79.8011 222° Southwest 335 386 38,000  Level Jacksonville Center
03:19PM 32.5794 -79.8750 222° Southwest 340 391 38,000  Level Jacksonville Center
03:20PM 32.5081 -79.9489 221° Southwest 340 391 38,000  Level Jacksonville Center
03:21PM 32.4389 -80.0250 223° Southwest 340 391 38,000  Level Jacksonville Center
03:22PM 32.3675 -80.1008 222° Southwest 340 391 38,000  Level Jacksonville Center
03:23PM 32.2961 -80.1744 221° Southwest 346 398 38,000  Level Jacksonville Center
03:24PM 32.2244 -80.2503 222° Southwest 346 398 38,000 -50 Level Jacksonville Center
03:25PM 32.1531 -80.3233 221° Southwest 351 404 37,900  Descending Jacksonville Center
03:26PM 32.0836 -80.3964 222° Southwest 351 404 38,000 50 Climbing Jacksonville Center
03:27PM 32.0181 -80.4669 222° Southwest 328 377 38,000  Level Jacksonville Center
03:28PM 31.9444 -80.5447 222° Southwest 328 377 38,000  Level Jacksonville Center
03:29PM 31.8747 -80.6150 221° Southwest 335 386 38,000  Level Jacksonville Center
03:30PM 31.8131 -80.6775 221° Southwest 333 383 38,000  Level Jacksonville Center
03:31PM 31.7372 -80.7575 222° Southwest 333 383 38,000  Level Jacksonville Center
03:32PM 31.6586 -80.7936 201° Southwest 333 383 38,000  Level Jacksonville Center
03:33PM 31.5569 -80.8300 197° South 349 402 38,000 -400 Level Jacksonville Center
03:34PM 31.4633 -80.8636 197° South 354 407 37,200 -1,450 Descending Jacksonville Center
03:35PM 31.3739 -80.8850 192° South 365 420 35,100 -2,350 Descending Jacksonville Center
03:36PM 31.2533 -80.9072 189° South 394 453 32,500 -1,550 Descending Jacksonville Center
03:37PM 31.1344 -80.9169 184° South 419 482 32,000 -250 Descending Jacksonville Center
03:38PM 31.0178 -80.9314 186° South 424 488 32,000  Level Jacksonville Center
03:39PM 30.9031 -80.9411 184° South 424 488 32,000  Level Jacksonville Center
03:40PM 30.7883 -80.9531 185° South 424 488 32,000  Level Jacksonville Center
03:41PM 30.6758 -80.9675 186° South 424 488 32,000  Level Jacksonville Center
03:42PM 30.5611 -80.9772 184° South 424 488 32,000  Level Jacksonville Center
03:43PM 30.4486 -80.9914 186° South 424 488 32,000  Level Jacksonville Center
03:44PM 30.3319 -81.0033 185° South 424 488 32,000 -750 Level Jacksonville Center
03:45PM 30.2194 -81.0175 186° South 419 482 30,500 -2,200 Descending Jacksonville Center
03:46PM 30.1025 -81.0294 185° South 419 482 27,600 -2,000 Descending Jacksonville Center
03:47PM 29.9858 -81.0414 185° South 424 488 26,500 -1,300 Descending Jacksonville Center
03:48PM 29.8733 -81.0553 186° South 419 482 25,000 -1,750 Descending Jacksonville Center
03:49PM 29.7586 -81.0647 184° South 413 475 23,000 -2,000 Descending Jacksonville Center
03:50PM 29.6442 -81.0811 187° South 418 481 21,000 -1,950 Descending Jacksonville Center
03:51PM 29.5314 -81.0906 184° South 418 481 19,100 -1,750 Descending Jacksonville Center
03:52PM 29.4356 -81.0994 185° South 406 467 17,500 -1,550 Descending Jacksonville Center
03:53PM 29.3314 -81.1133 187° South 387 445 16,000 -1,500 Descending Jacksonville Center
03:54PM 29.2269 -81.1103 179° South 382 440 14,500 -1,550 Descending Jacksonville Center
03:55PM 29.1244 -81.1003 175° South 382 440 12,900 -1,300 Descending Jacksonville Center
03:56PM 29.0306 -81.0950 177° South 371 427 11,900 -650 Descending Jacksonville Center
03:57PM 28.9489 -81.0797 171° South 335 386 11,600 -1,350 Descending Jacksonville Center
03:58PM 28.8717 -81.0694 173° South 305 351 9,200 -2,100 Descending Jacksonville Center
03:59PM 28.8006 -81.0589 173° South 284 327 7,400 -1,600 Descending Jacksonville Center
04:00PM 28.7636 -81.1067 229° Southwest 228 262 6,000 -750 Descending Jacksonville Center
04:01PM 28.7478 -81.1758 255° West 193 222 5,900 -919 Descending Jacksonville Center
04:02PM 28.7167 -81.2333 238° Southwest 201 231 4,100 -968 Descending Orlando TRACON
04:03PM 28.6667 -81.2667 210° Southwest 205 236 3,900 -750 Descending Orlando TRACON
04:04PM 28.6167 -81.3000 210° Southwest 207 238 2,600 -750 Descending Orlando TRACON
04:05PM 28.5667 -81.3000 180° South 175 201 2,400 -550 Descending Orlando TRACON
04:06PM 28.5167 -81.3000 180° South 169 194 1,500 -800 Descending Orlando TRACON
04:07PM 28.4667 -81.3000 180° South 125 144 800 -700 Descending Orlando TRACON
04:09PM 28.4294 -81.3090 180° South  Level Estimated
04:16PM 28.4294 -81.3090 180° South  Level Estimated
04:17PM 28.4294 -81.3090 180° South  Level Estimated
04:18PM 28.4294 -81.3090 180° South  Level Estimated
04:19PM 28.4294 -81.3090 180° South  Level Estimated